createdAt,value
2023-07-30T00:00:35.262Z,18.33
2023-07-30T00:03:05.535Z,18.24
2023-07-30T00:05:35.856Z,18.58
2023-07-30T00:08:06.006Z,20.95
2023-07-30T00:10:38.078Z,21.34
2023-07-30T00:13:08.329Z,20.71
2023-07-30T00:15:38.358Z,20.13
2023-07-30T00:18:08.568Z,19.67
2023-07-30T00:20:38.640Z,19.31
2023-07-30T00:23:08.608Z,19.04
2023-07-30T00:25:38.528Z,18.80
2023-07-30T00:28:08.504Z,18.59
2023-07-30T00:30:38.737Z,18.43
2023-07-30T00:33:08.584Z,18.30
2023-07-30T00:35:38.683Z,18.19
2023-07-30T00:38:08.601Z,18.08
2023-07-30T00:40:43.353Z,17.96
2023-07-30T00:43:13.585Z,17.81
2023-07-30T00:45:44.226Z,17.70
2023-07-30T00:48:14.454Z,18.03
2023-07-30T00:50:44.313Z,20.40
2023-07-30T00:53:15.530Z,20.80
2023-07-30T00:55:46.198Z,20.16
2023-07-30T00:58:16.037Z,19.56
2023-07-30T01:00:46.252Z,19.09
2023-07-30T01:03:16.175Z,18.73
2023-07-30T01:05:46.285Z,18.44
2023-07-30T01:08:16.230Z,18.21
2023-07-30T01:10:46.886Z,18.01
2023-07-30T01:13:16.950Z,17.85
2023-07-30T01:15:46.814Z,17.72
2023-07-30T01:18:16.853Z,17.59
2023-07-30T01:20:47.268Z,17.49
2023-07-30T01:23:17.200Z,17.84
2023-07-30T01:25:47.359Z,20.21
2023-07-30T01:28:18.436Z,20.59
2023-07-30T01:30:49.675Z,19.94
2023-07-30T01:33:19.760Z,19.33
2023-07-30T01:35:49.904Z,18.87
2023-07-30T01:38:19.758Z,18.51
2023-07-30T01:40:49.650Z,18.22
2023-07-30T01:43:19.649Z,17.98
2023-07-30T01:45:49.826Z,17.78
2023-07-30T01:48:20.038Z,17.60
2023-07-30T01:50:50.118Z,17.45
2023-07-30T01:53:20.212Z,17.32
2023-07-30T01:55:50.237Z,17.20
2023-07-30T01:58:20.295Z,17.09
2023-07-30T02:00:50.295Z,17.43
2023-07-30T02:03:20.363Z,19.81
2023-07-30T02:05:50.760Z,20.19
2023-07-30T02:08:20.904Z,19.57
2023-07-30T02:10:58.351Z,18.98
2023-07-30T02:13:28.413Z,18.50
2023-07-30T02:15:58.434Z,18.14
2023-07-30T02:18:28.588Z,17.85
2023-07-30T02:20:58.628Z,17.62
2023-07-30T02:23:28.967Z,17.43
2023-07-30T02:25:58.863Z,17.24
2023-07-30T02:28:29.003Z,17.10
2023-07-30T02:30:59.142Z,16.97
2023-07-30T02:33:29.155Z,16.86
2023-07-30T02:35:59.067Z,17.18
2023-07-30T02:38:28.926Z,19.54
2023-07-30T02:40:58.929Z,19.93
2023-07-30T02:43:28.942Z,19.25
2023-07-30T02:45:59.030Z,18.58
2023-07-30T02:48:29.279Z,18.06
2023-07-30T02:50:59.124Z,17.60
2023-07-30T02:53:29.922Z,17.22
2023-07-30T02:56:00.062Z,16.93
2023-07-30T02:58:30.052Z,16.66
2023-07-30T03:01:08.038Z,16.41
2023-07-30T03:03:38.126Z,16.74
2023-07-30T03:06:08.127Z,19.17
2023-07-30T03:08:39.627Z,19.41
2023-07-30T03:11:09.460Z,18.71
2023-07-30T03:13:39.869Z,18.06
2023-07-30T03:16:09.845Z,17.56
2023-07-30T03:18:39.732Z,17.18
2023-07-30T03:21:09.637Z,16.88
2023-07-30T03:23:39.805Z,16.65
2023-07-30T03:26:09.650Z,16.94
2023-07-30T03:28:40.968Z,19.24
2023-07-30T03:31:11.403Z,19.54
2023-07-30T03:33:44.806Z,18.89
2023-07-30T03:36:15.048Z,18.29
2023-07-30T03:38:45.198Z,17.86
2023-07-30T03:41:15.073Z,17.54
2023-07-30T03:43:44.987Z,17.31
2023-07-30T03:46:15.194Z,17.57
2023-07-30T03:48:45.485Z,19.84
2023-07-30T03:51:15.519Z,20.14
2023-07-30T03:53:45.460Z,19.51
2023-07-30T03:56:15.344Z,18.94
2023-07-30T03:58:45.519Z,18.51
2023-07-30T04:01:15.533Z,18.19
2023-07-30T04:03:45.871Z,17.96
2023-07-30T04:06:15.934Z,18.28
2023-07-30T04:08:46.369Z,20.57
2023-07-30T04:11:16.246Z,20.83
2023-07-30T04:13:46.226Z,20.21
2023-07-30T04:16:16.322Z,19.65
2023-07-30T04:18:46.399Z,19.24
2023-07-30T04:21:16.683Z,18.93
2023-07-30T04:23:46.863Z,18.71
2023-07-30T04:26:16.831Z,19.03
2023-07-30T04:28:47.020Z,21.31
2023-07-30T04:31:17.728Z,21.57
2023-07-30T04:33:47.699Z,20.94
2023-07-30T04:36:17.688Z,20.37
2023-07-30T04:38:48.847Z,19.94
2023-07-30T04:41:19.812Z,19.63
2023-07-30T04:43:54.421Z,19.39
2023-07-30T04:46:24.483Z,19.64
2023-07-30T04:48:54.669Z,21.83
2023-07-30T04:51:24.686Z,22.11
2023-07-30T04:53:54.760Z,21.52
2023-07-30T04:56:27.444Z,20.98
2023-07-30T04:58:57.904Z,20.59
2023-07-30T05:01:28.072Z,20.31
2023-07-30T05:03:58.089Z,20.10
2023-07-30T05:06:28.112Z,20.35
2023-07-30T05:08:58.799Z,22.56
2023-07-30T05:11:28.825Z,22.86
2023-07-30T05:13:58.807Z,22.26
2023-07-30T05:16:28.769Z,21.72
2023-07-30T05:18:58.701Z,21.31
2023-07-30T05:21:28.910Z,21.02
2023-07-30T05:23:58.784Z,20.81
2023-07-30T05:26:28.791Z,20.66
2023-07-30T05:28:58.971Z,20.54
2023-07-30T05:31:28.944Z,20.46
2023-07-30T05:33:58.886Z,20.41
2023-07-30T05:36:28.891Z,20.39
2023-07-30T05:38:58.772Z,20.80
2023-07-30T05:41:28.637Z,23.21
2023-07-30T05:43:58.956Z,23.67
2023-07-30T05:46:29.019Z,23.14
2023-07-30T05:48:58.939Z,22.62
2023-07-30T05:51:29.050Z,22.24
2023-07-30T05:53:59.108Z,21.97
2023-07-30T05:56:29.228Z,21.76
2023-07-30T05:58:59.090Z,21.61
2023-07-30T06:01:29.196Z,21.49
2023-07-30T06:03:59.602Z,21.42
2023-07-30T06:06:29.758Z,21.37
2023-07-30T06:08:59.620Z,21.33
2023-07-30T06:11:29.762Z,21.32
2023-07-30T06:13:59.643Z,21.32
2023-07-30T06:16:29.777Z,21.34
2023-07-30T06:19:00.014Z,21.36
2023-07-30T06:21:30.213Z,21.39
2023-07-30T06:24:00.177Z,21.44
2023-07-30T06:26:30.281Z,21.49
2023-07-30T06:29:00.323Z,21.56
2023-07-30T06:31:30.365Z,21.63
2023-07-30T06:34:00.332Z,21.70
2023-07-30T06:36:30.351Z,21.78
2023-07-30T06:39:00.201Z,21.86
2023-07-30T06:41:32.707Z,22.44
2023-07-30T06:44:03.303Z,25.04
2023-07-30T06:46:33.738Z,25.50
2023-07-30T06:49:03.727Z,25.00
2023-07-30T06:51:34.135Z,24.55
2023-07-30T06:54:04.640Z,24.22
2023-07-30T06:56:34.820Z,23.99
2023-07-30T06:59:05.601Z,23.83
2023-07-30T07:01:36.077Z,23.72
2023-07-30T07:04:06.609Z,23.64
2023-07-30T07:06:36.459Z,23.57
2023-07-30T07:09:06.672Z,23.52
2023-07-30T07:11:36.978Z,23.48
2023-07-30T07:14:07.160Z,23.44
2023-07-30T07:16:37.239Z,23.41
2023-07-30T07:19:07.332Z,23.38
2023-07-30T07:21:37.545Z,23.34
2023-07-30T07:24:08.579Z,23.31
2023-07-30T07:26:39.060Z,23.28
2023-07-30T07:29:09.114Z,23.26
2023-07-30T07:31:39.426Z,23.23
2023-07-30T07:34:10.339Z,23.21
2023-07-30T07:36:40.786Z,23.20
2023-07-30T07:39:10.855Z,23.19
2023-07-30T07:41:40.735Z,23.18
2023-07-30T07:56:58.580Z,22.76
2023-07-30T07:59:29.046Z,25.17
2023-07-30T08:02:00.836Z,25.65
2023-07-30T08:04:31.058Z,25.13
2023-07-30T08:07:04.410Z,24.62
2023-07-30T08:09:34.447Z,24.24
2023-07-30T08:12:05.088Z,23.96
2023-07-30T08:14:35.159Z,23.75
2023-07-30T08:17:05.927Z,23.58
2023-07-30T08:19:35.862Z,23.44
2023-07-30T08:22:06.238Z,23.34
2023-07-30T08:24:36.293Z,23.25
2023-07-30T08:27:06.584Z,23.17
2023-07-30T08:29:39.338Z,23.10
2023-07-30T08:32:10.191Z,23.04
2023-07-30T08:34:40.744Z,23.50
2023-07-30T08:37:11.063Z,25.86
2023-07-30T08:39:41.148Z,26.15
2023-07-30T08:42:10.996Z,25.57
2023-07-30T08:44:40.947Z,25.03
2023-07-30T08:47:10.799Z,24.62
2023-07-30T08:49:40.713Z,24.31
2023-07-30T08:52:11.761Z,24.07
2023-07-30T08:54:41.727Z,23.87
2023-07-30T08:57:11.715Z,23.71
2023-07-30T08:59:43.197Z,23.57
2023-07-30T09:02:16.667Z,23.46
2023-07-30T09:04:46.858Z,23.36
2023-07-30T09:07:16.743Z,23.27
2023-07-30T09:09:46.600Z,23.21
2023-07-30T09:12:19.283Z,23.15
2023-07-30T09:14:51.963Z,23.61
2023-07-30T09:17:22.305Z,26.00
2023-07-30T09:19:53.549Z,26.25
2023-07-30T09:22:29.890Z,25.67
2023-07-30T09:25:01.495Z,25.12
2023-07-30T09:27:32.348Z,24.73
2023-07-30T09:30:03.944Z,24.45
2023-07-30T09:32:35.127Z,24.24
2023-07-30T09:35:08.957Z,24.07
2023-07-30T09:37:40.404Z,23.96
2023-07-30T09:40:13.248Z,23.87
2023-07-30T09:42:44.896Z,23.81
2023-07-30T09:45:21.651Z,23.77
2023-07-30T09:47:51.809Z,24.34
2023-07-30T09:50:21.772Z,26.58
2023-07-30T09:52:51.852Z,26.78
2023-07-30T09:55:22.074Z,26.28
2023-07-30T09:57:52.388Z,25.86
2023-07-30T10:00:23.099Z,25.56
2023-07-30T10:02:53.270Z,25.35
2023-07-30T10:05:24.436Z,25.20
2023-07-30T10:07:56.946Z,25.08
2023-07-30T10:10:27.157Z,24.98
2023-07-30T10:12:58.426Z,24.93
2023-07-30T10:15:28.330Z,24.89
2023-07-30T10:18:00.013Z,24.86
2023-07-30T10:20:31.871Z,24.85
2023-07-30T10:23:02.028Z,24.86
2023-07-30T10:25:44.564Z,24.90
2023-07-30T10:28:38.227Z,24.94
2023-07-30T10:31:09.823Z,24.99
2023-07-30T10:33:50.472Z,25.04
2023-07-30T10:36:21.070Z,25.12
2023-07-30T10:38:51.096Z,25.20
2023-07-30T10:41:22.127Z,25.28
2023-07-30T10:43:52.342Z,25.36
2023-07-30T10:46:22.452Z,25.44
2023-07-30T10:48:52.481Z,25.53
2023-07-30T10:51:24.060Z,25.62
2023-07-30T10:53:53.998Z,25.69
2023-07-30T10:56:28.065Z,25.73
2023-07-30T10:58:58.373Z,25.78
2023-07-30T11:01:28.575Z,25.82
2023-07-30T11:03:58.663Z,25.88
2023-07-30T11:06:28.838Z,25.92
2023-07-30T11:08:58.776Z,25.97
2023-07-30T11:11:28.759Z,26.03
2023-07-30T11:13:59.969Z,26.09
2023-07-30T11:16:29.999Z,26.18
2023-07-30T11:18:59.981Z,26.27
2023-07-30T11:21:29.897Z,26.36
2023-07-30T11:23:59.768Z,26.47
2023-07-30T11:26:29.806Z,26.56
2023-07-30T11:28:59.769Z,26.65
2023-07-30T11:31:29.675Z,26.74
2023-07-30T11:33:59.727Z,26.85
2023-07-30T11:36:29.656Z,26.96
2023-07-30T11:38:59.541Z,27.06
2023-07-30T11:41:29.657Z,27.16
2023-07-30T11:44:00.258Z,27.25
2023-07-30T11:46:31.792Z,27.35
2023-07-30T11:49:15.692Z,27.45
2023-07-30T11:51:49.138Z,27.55
2023-07-30T11:54:23.892Z,27.65
2023-07-30T11:56:57.804Z,27.73
2023-07-30T11:59:27.762Z,27.79
2023-07-30T12:01:57.810Z,27.85
2023-07-30T12:04:29.593Z,27.90
2023-07-30T12:06:59.618Z,27.91
2023-07-30T12:09:31.822Z,27.92
2023-07-30T12:12:02.473Z,27.92
2023-07-30T12:14:44.046Z,27.90
2023-07-30T12:17:14.320Z,27.91
2023-07-30T12:19:44.894Z,27.95
2023-07-30T12:22:14.984Z,27.98
2023-07-30T12:24:44.871Z,27.98
2023-07-30T12:27:14.758Z,27.97
2023-07-30T12:29:45.289Z,27.95
2023-07-30T12:32:15.436Z,27.96
2023-07-30T12:34:45.362Z,27.97
2023-07-30T12:37:15.397Z,28.00
2023-07-30T12:39:45.576Z,28.05
2023-07-30T12:42:15.620Z,28.10
2023-07-30T12:44:45.611Z,28.14
2023-07-30T12:47:15.477Z,28.17
2023-07-30T12:49:48.353Z,28.23
2023-07-30T12:52:18.257Z,28.28
2023-07-30T12:54:49.087Z,28.31
2023-07-30T12:57:18.917Z,28.32
2023-07-30T12:59:48.940Z,28.33
2023-07-30T13:02:19.046Z,28.32
2023-07-30T13:04:49.380Z,28.31
2023-07-30T13:07:19.224Z,28.30
2023-07-30T13:10:03.984Z,28.30
2023-07-30T13:12:34.318Z,28.33
2023-07-30T13:15:04.862Z,28.36
2023-07-30T13:17:35.801Z,28.41
2023-07-30T13:20:07.557Z,28.48
2023-07-30T13:22:37.772Z,28.53
2023-07-30T13:25:09.159Z,28.56
2023-07-30T13:27:39.339Z,28.56
2023-07-30T13:30:11.036Z,28.55
2023-07-30T13:32:41.479Z,28.54
2023-07-30T13:35:11.621Z,28.51
2023-07-30T13:37:41.876Z,28.48
2023-07-30T13:40:13.237Z,28.48
2023-07-30T13:42:43.443Z,28.48
2023-07-30T13:45:13.912Z,28.46
2023-07-30T13:47:43.808Z,28.44
2023-07-30T13:50:13.994Z,28.44
2023-07-30T13:52:44.245Z,28.45
2023-07-30T13:55:14.235Z,28.48
2023-07-30T13:57:44.403Z,28.52
2023-07-30T14:00:16.199Z,28.56
2023-07-30T14:02:46.695Z,28.60
2023-07-30T14:05:17.411Z,28.64
2023-07-30T14:07:47.429Z,28.67
2023-07-30T14:10:17.459Z,28.70
2023-07-30T14:12:47.410Z,28.75
2023-07-30T14:15:17.822Z,28.81
2023-07-30T14:17:47.892Z,28.86
2023-07-30T14:20:18.030Z,28.91
2023-07-30T14:22:48.267Z,28.94
2023-07-30T14:25:18.676Z,28.96
2023-07-30T14:27:48.929Z,28.98
2023-07-30T14:30:18.847Z,28.99
2023-07-30T14:32:48.965Z,28.97
2023-07-30T14:35:19.379Z,28.96
2023-07-30T14:37:50.288Z,28.93
2023-07-30T14:40:20.235Z,28.90
2023-07-30T14:42:50.243Z,28.86
2023-07-30T14:45:20.557Z,28.82
2023-07-30T14:47:50.563Z,28.77
2023-07-30T14:50:21.225Z,28.71
2023-07-30T14:52:51.371Z,28.65
2023-07-30T14:55:21.295Z,28.60
2023-07-30T14:57:51.317Z,28.53
2023-07-30T15:00:21.692Z,28.47
2023-07-30T15:02:51.863Z,28.35
2023-07-30T15:05:22.310Z,28.18
2023-07-30T15:07:52.787Z,27.94
2023-07-30T15:10:22.799Z,27.70
2023-07-30T15:12:52.661Z,27.42
2023-07-30T15:15:22.731Z,27.18
2023-07-30T15:17:52.834Z,26.90
2023-07-30T15:20:22.938Z,26.65
2023-07-30T15:22:52.848Z,26.41
2023-07-30T15:25:23.773Z,26.11
2023-07-30T15:27:54.265Z,25.82
2023-07-30T15:30:26.817Z,25.56
2023-07-30T15:32:56.779Z,25.32
2023-07-30T15:35:27.153Z,25.15
2023-07-30T15:37:57.616Z,24.97
2023-07-30T15:40:27.495Z,24.82
2023-07-30T15:42:57.836Z,24.71
2023-07-30T15:45:28.153Z,24.62
2023-07-30T15:47:59.399Z,24.55
2023-07-30T15:50:29.745Z,24.51
2023-07-30T15:52:59.787Z,24.49
2023-07-30T15:55:29.638Z,24.49
2023-07-30T15:58:00.839Z,24.51
2023-07-30T16:00:30.871Z,24.54
2023-07-30T16:03:05.055Z,24.56
2023-07-30T16:05:35.398Z,24.58
2023-07-30T16:08:06.094Z,24.59
2023-07-30T16:10:38.922Z,24.61
2023-07-30T16:13:09.743Z,24.62
2023-07-30T16:15:39.682Z,24.64
2023-07-30T16:18:09.735Z,24.65
2023-07-30T16:20:39.900Z,24.65
2023-07-30T16:23:10.026Z,24.65
2023-07-30T16:25:40.435Z,24.66
2023-07-30T16:28:10.759Z,24.67
2023-07-30T16:30:40.803Z,24.66
2023-07-30T16:33:11.084Z,24.66
2023-07-30T16:35:41.578Z,24.66
2023-07-30T16:38:11.472Z,24.65
2023-07-30T16:40:41.359Z,24.63
2023-07-30T16:43:11.470Z,24.59
2023-07-30T16:45:41.364Z,24.55
2023-07-30T16:48:11.472Z,24.52
2023-07-30T16:50:41.694Z,24.48
2023-07-30T16:53:11.792Z,24.44
2023-07-30T16:55:41.675Z,24.42
2023-07-30T16:58:12.113Z,24.40
2023-07-30T17:00:42.858Z,24.37
2023-07-30T17:03:13.010Z,24.34
2023-07-30T17:05:43.032Z,24.32
2023-07-30T17:08:14.468Z,24.31
2023-07-30T17:10:44.552Z,24.28
2023-07-30T17:13:14.549Z,24.24
2023-07-30T17:15:44.464Z,24.21
2023-07-30T17:18:17.399Z,24.18
2023-07-30T17:20:48.708Z,24.14
2023-07-30T17:23:18.576Z,24.07
2023-07-30T17:25:54.083Z,23.99
2023-07-30T17:28:24.426Z,23.94
2023-07-30T17:30:54.524Z,23.89
2023-07-30T17:33:25.039Z,23.87
2023-07-30T17:35:56.008Z,23.82
2023-07-30T17:38:26.072Z,23.77
2023-07-30T17:40:56.219Z,23.74
2023-07-30T17:43:26.313Z,23.71
2023-07-30T17:45:56.424Z,23.68
2023-07-30T17:48:28.406Z,23.65
2023-07-30T17:50:58.510Z,23.61
2023-07-30T17:53:28.540Z,23.57
2023-07-30T17:55:58.606Z,23.54
2023-07-30T17:58:28.656Z,23.50
2023-07-30T18:00:59.430Z,23.45
2023-07-30T18:03:29.309Z,23.42
2023-07-30T18:05:59.231Z,23.38
2023-07-30T18:08:29.136Z,23.34
2023-07-30T18:10:59.127Z,23.29
2023-07-30T18:13:29.058Z,23.25
2023-07-30T18:15:58.936Z,23.21
2023-07-30T18:18:28.994Z,23.16
2023-07-30T18:20:59.068Z,23.12
2023-07-30T18:23:28.911Z,23.07
2023-07-30T18:25:59.117Z,23.01
2023-07-30T18:28:29.259Z,22.98
2023-07-30T18:30:59.279Z,22.94
2023-07-30T18:33:29.695Z,22.90
2023-07-30T18:36:00.164Z,22.84
2023-07-30T18:38:31.021Z,23.20
2023-07-30T18:41:05.245Z,25.54
2023-07-30T18:43:35.363Z,25.91
2023-07-30T18:46:05.498Z,25.34
2023-07-30T18:48:36.226Z,24.81
2023-07-30T18:51:06.696Z,24.39
2023-07-30T18:53:37.098Z,24.05
2023-07-30T18:56:07.700Z,23.78
2023-07-30T18:58:37.782Z,23.58
2023-07-30T19:01:07.809Z,23.40
2023-07-30T19:03:38.338Z,23.24
2023-07-30T19:06:08.460Z,23.09
2023-07-30T19:08:39.832Z,22.95
2023-07-30T19:11:09.872Z,22.83
2023-07-30T19:13:39.859Z,22.72
2023-07-30T19:16:10.111Z,22.63
2023-07-30T19:18:40.183Z,22.54
2023-07-30T19:21:10.140Z,22.46
2023-07-30T19:23:40.108Z,22.37
2023-07-30T19:26:10.398Z,22.72
2023-07-30T19:28:40.544Z,25.04
2023-07-30T19:31:10.579Z,25.41
2023-07-30T19:33:42.460Z,24.82
2023-07-30T19:36:12.723Z,24.24
2023-07-30T19:38:43.156Z,23.80
2023-07-30T19:41:26.976Z,23.44
2023-07-30T19:43:58.116Z,23.21
2023-07-30T19:46:28.071Z,23.00
2023-07-30T19:48:58.583Z,22.81
2023-07-30T19:51:29.161Z,22.68
2023-07-30T19:53:58.990Z,22.56
2023-07-30T19:56:28.948Z,22.45
2023-07-30T19:58:58.778Z,22.83
2023-07-30T20:01:28.734Z,25.13
2023-07-30T20:03:58.795Z,25.43
2023-07-30T20:06:28.696Z,24.81
2023-07-30T20:08:58.592Z,24.25
2023-07-30T20:11:28.456Z,23.81
2023-07-30T20:13:58.295Z,23.46
2023-07-30T20:16:28.213Z,23.18
2023-07-30T20:18:58.513Z,22.96
2023-07-30T20:21:28.465Z,22.75
2023-07-30T20:23:58.300Z,22.61
2023-07-30T20:26:28.200Z,22.46
2023-07-30T20:29:01.604Z,22.34
2023-07-30T20:31:37.271Z,22.21
2023-07-30T20:34:07.277Z,22.65
2023-07-30T20:36:37.902Z,24.97
2023-07-30T20:39:08.105Z,25.20
2023-07-30T20:41:38.003Z,24.54
2023-07-30T20:44:08.967Z,23.91
2023-07-30T20:46:39.188Z,23.45
2023-07-30T20:49:09.353Z,23.07
2023-07-30T20:51:39.212Z,22.78
2023-07-30T20:54:10.698Z,22.55
2023-07-30T20:56:40.875Z,22.35
2023-07-30T20:59:11.281Z,22.18
2023-07-30T21:01:41.178Z,22.04
2023-07-30T21:04:11.233Z,21.89
2023-07-30T21:06:41.590Z,21.77
2023-07-30T21:09:11.777Z,22.12
2023-07-30T21:11:41.819Z,24.44
2023-07-30T21:14:11.851Z,24.75
2023-07-30T21:16:41.842Z,24.09
2023-07-30T21:19:11.960Z,23.47
2023-07-30T21:21:42.110Z,22.99
2023-07-30T21:24:12.244Z,22.60
2023-07-30T21:26:42.106Z,22.29
2023-07-30T21:29:12.610Z,22.04
2023-07-30T21:31:42.854Z,21.83
2023-07-30T21:34:12.933Z,21.65
2023-07-30T21:36:42.955Z,21.48
2023-07-30T21:39:13.015Z,21.33
2023-07-30T21:41:43.001Z,21.19
2023-07-30T21:44:13.035Z,21.46
2023-07-30T21:46:43.615Z,23.69
2023-07-30T21:49:13.921Z,24.05
2023-07-30T21:51:44.088Z,23.43
2023-07-30T21:54:14.052Z,22.83
2023-07-30T21:56:43.925Z,22.37
2023-07-30T21:59:13.788Z,22.01
2023-07-30T22:01:43.934Z,21.72
2023-07-30T22:04:13.985Z,21.48
2023-07-30T22:06:43.966Z,21.27
2023-07-30T22:09:13.956Z,21.09
2023-07-30T22:11:43.915Z,20.94
2023-07-30T22:14:13.784Z,21.20
2023-07-30T22:16:44.998Z,23.40
2023-07-30T22:19:15.042Z,23.72
2023-07-30T22:21:45.007Z,23.10
2023-07-30T22:24:15.410Z,22.50
2023-07-30T22:26:45.247Z,22.04
2023-07-30T22:29:15.140Z,21.70
2023-07-30T22:31:45.084Z,21.41
2023-07-30T22:34:15.486Z,21.17
2023-07-30T22:36:45.416Z,20.98
2023-07-30T22:39:15.286Z,21.23
2023-07-30T22:41:45.390Z,23.44
2023-07-30T22:44:15.481Z,23.73
2023-07-30T22:46:45.900Z,23.09
2023-07-30T22:49:15.792Z,22.49
2023-07-30T22:51:45.871Z,22.02
2023-07-30T22:54:16.045Z,21.66
2023-07-30T22:56:45.896Z,21.37
2023-07-30T22:59:15.903Z,21.12
2023-07-30T23:01:45.807Z,20.91
2023-07-30T23:04:15.670Z,20.73
2023-07-30T23:06:45.564Z,20.96
2023-07-30T23:09:15.606Z,23.15
2023-07-30T23:11:47.109Z,23.39
2023-07-30T23:14:17.462Z,22.81
2023-07-30T23:16:47.459Z,22.20
2023-07-30T23:19:17.393Z,21.72
2023-07-30T23:21:47.467Z,21.35
2023-07-30T23:24:17.751Z,21.06
2023-07-30T23:26:47.740Z,20.83
2023-07-30T23:29:17.622Z,20.63
2023-07-30T23:31:47.708Z,20.47
2023-07-30T23:34:17.690Z,20.81
2023-07-30T23:36:47.568Z,23.11
2023-07-30T23:39:17.463Z,23.40
2023-07-30T23:41:47.426Z,22.75
2023-07-30T23:44:17.413Z,22.15
2023-07-30T23:46:47.407Z,21.69
2023-07-30T23:49:17.439Z,21.30
2023-07-30T23:51:47.648Z,21.01
2023-07-30T23:54:17.646Z,20.77
2023-07-30T23:56:47.679Z,20.58
2023-07-30T23:59:17.737Z,20.79
